sensor_id;sensor_type;location;lat;lon;timestamp;pressure;altitude;pressure_sealevel;temperature;humidity
60019;BME280;45870;42.528;26.740;2023-02-02T00:02:01;99681.59;;;9.46;38.82
60019;BME280;45870;42.528;26.740;2023-02-02T00:04:32;99675.03;;;8.87;39.26
60019;BME280;45870;42.528;26.740;2023-02-02T00:06:59;99613.25;;;8.38;38.09
60019;BME280;45870;42.528;26.740;2023-02-02T00:09:28;99699.56;;;9.52;37.50
60019;BME280;45870;42.528;26.740;2023-02-02T00:11:56;99698.75;;;9.81;37.06
60019;BME280;45870;42.528;26.740;2023-02-02T00:14:23;99703.06;;;9.52;37.12
60019;BME280;45870;42.528;26.740;2023-02-02T00:16:51;99642.91;;;8.92;38.05
60019;BME280;45870;42.528;26.740;2023-02-02T00:19:23;99685.31;;;8.97;39.15
60019;BME280;45870;42.528;26.740;2023-02-02T00:21:51;99680.94;;;9.32;38.38
60019;BME280;45870;42.528;26.740;2023-02-02T00:24:18;99674.94;;;9.48;37.98
60019;BME280;45870;42.528;26.740;2023-02-02T00:26:46;99670.88;;;9.39;38.12
60019;BME280;45870;42.528;26.740;2023-02-02T00:29:17;99676.44;;;9.08;36.56
60019;BME280;45870;42.528;26.740;2023-02-02T00:31:43;99658.84;;;8.01;38.92
60019;BME280;45870;42.528;26.740;2023-02-02T00:34:11;99657.50;;;7.10;42.08
60019;BME280;45870;42.528;26.740;2023-02-02T00:36:38;99661.72;;;8.31;38.78
60019;BME280;45870;42.528;26.740;2023-02-02T00:39:05;99604.06;;;7.71;38.60
60019;BME280;45870;42.528;26.740;2023-02-02T00:41:31;99670.41;;;8.02;38.32
60019;BME280;45870;42.528;26.740;2023-02-02T00:43:57;99652.06;;;7.92;39.08
60019;BME280;45870;42.528;26.740;2023-02-02T00:46:41;99645.41;;;8.01;39.16
60019;BME280;45870;42.528;26.740;2023-02-02T00:49:08;99643.59;;;8.45;38.50
60019;BME280;45870;42.528;26.740;2023-02-02T00:51:41;99642.25;;;8.04;38.85
60019;BME280;45870;42.528;26.740;2023-02-02T00:54:07;99637.97;;;8.28;38.75
60019;BME280;45870;42.528;26.740;2023-02-02T00:56:33;99631.06;;;8.08;39.22
60019;BME280;45870;42.528;26.740;2023-02-02T00:59:00;99622.44;;;8.24;38.49
60019;BME280;45870;42.528;26.740;2023-02-02T01:01:27;99614.50;;;7.86;39.17
60019;BME280;45870;42.528;26.740;2023-02-02T01:03:53;99629.41;;;7.82;39.13
60019;BME280;45870;42.528;26.740;2023-02-02T01:06:19;99632.88;;;7.58;39.71
60019;BME280;45870;42.528;26.740;2023-02-02T01:08:45;99629.44;;;7.75;39.85
60019;BME280;45870;42.528;26.740;2023-02-02T01:11:12;99629.44;;;7.75;40.06
60019;BME280;45870;42.528;26.740;2023-02-02T01:13:38;99621.69;;;7.61;41.46
60019;BME280;45870;42.528;26.740;2023-02-02T01:16:04;99634.81;;;8.31;40.32
60019;BME280;45870;42.528;26.740;2023-02-02T01:18:30;99642.88;;;8.31;39.85
60019;BME280;45870;42.528;26.740;2023-02-02T01:21:05;99649.97;;;8.50;39.54
60019;BME280;45870;42.528;26.740;2023-02-02T01:23:32;99657.28;;;5.28;46.36
60019;BME280;45870;42.528;26.740;2023-02-02T01:26:00;99660.59;;;7.51;42.56
60019;BME280;45870;42.528;26.740;2023-02-02T01:28:26;99660.72;;;8.50;39.93
60019;BME280;45870;42.528;26.740;2023-02-02T01:30:53;99666.75;;;6.04;46.32
60019;BME280;45870;42.528;26.740;2023-02-02T01:33:20;99649.97;;;8.87;40.07
60019;BME280;45870;42.528;26.740;2023-02-02T01:35:47;99658.97;;;9.47;38.90
60019;BME280;45870;42.528;26.740;2023-02-02T01:38:14;99688.09;;;6.83;43.52
60019;BME280;45870;42.528;26.740;2023-02-02T01:40:45;99672.13;;;7.08;44.31
60019;BME280;45870;42.528;26.740;2023-02-02T01:43:30;99693.91;;;6.80;44.06
60019;BME280;45870;42.528;26.740;2023-02-02T01:46:38;99684.53;;;8.72;40.24
60019;BME280;45870;42.528;26.740;2023-02-02T01:49:17;99705.91;;;6.58;44.74
60019;BME280;45870;42.528;26.740;2023-02-02T01:51:51;99692.63;;;5.10;50.22
60019;BME280;45870;42.528;26.740;2023-02-02T01:54:22;99682.56;;;7.42;44.50
60019;BME280;45870;42.528;26.740;2023-02-02T01:56:54;99672.25;;;8.58;41.67
60019;BME280;45870;42.528;26.740;2023-02-02T01:59:22;99706.81;;;5.65;50.04
60019;BME280;45870;42.528;26.740;2023-02-02T02:01:51;99684.59;;;9.01;41.85
60019;BME280;45870;42.528;26.740;2023-02-02T02:04:20;99588.41;;;5.63;46.73
60019;BME280;45870;42.528;26.740;2023-02-02T02:06:47;99556.88;;;5.84;48.38
60019;BME280;45870;42.528;26.740;2023-02-02T02:09:13;99543.91;;;7.16;43.77
60019;BME280;45870;42.528;26.740;2023-02-02T02:11:39;99705.47;;;7.44;46.57
60019;BME280;45870;42.528;26.740;2023-02-02T02:14:08;99682.78;;;9.50;41.17
60019;BME280;45870;42.528;26.740;2023-02-02T02:26:13;99673.56;;;10.52;38.07
60019;BME280;45870;42.528;26.740;2023-02-02T02:34:53;99661.63;;;10.07;38.22
60019;BME280;45870;42.528;26.740;2023-02-02T02:37:37;99631.75;;;8.89;40.62
60019;BME280;45870;42.528;26.740;2023-02-02T02:40:25;99637.72;;;8.55;42.84
60019;BME280;45870;42.528;26.740;2023-02-02T02:42:57;99638.97;;;8.02;44.09
60019;BME280;45870;42.528;26.740;2023-02-02T02:45:32;99653.72;;;7.62;44.97
60019;BME280;45870;42.528;26.740;2023-02-02T02:47:58;99634.63;;;8.33;43.46
60019;BME280;45870;42.528;26.740;2023-02-02T02:50:24;99648.34;;;8.68;42.52
60019;BME280;45870;42.528;26.740;2023-02-02T02:52:59;99633.50;;;9.61;40.55
60019;BME280;45870;42.528;26.740;2023-02-02T02:55:32;99625.03;;;9.87;39.68
60019;BME280;45870;42.528;26.740;2023-02-02T02:58:09;99632.75;;;9.84;39.45
60019;BME280;45870;42.528;26.740;2023-02-02T03:03:52;99611.03;;;9.08;41.38
60019;BME280;45870;42.528;26.740;2023-02-02T03:09:08;99608.50;;;8.76;41.46
60019;BME280;45870;42.528;26.740;2023-02-02T03:11:36;99556.03;;;9.15;39.92
60019;BME280;45870;42.528;26.740;2023-02-02T03:14:03;99604.50;;;10.16;38.56
60019;BME280;45870;42.528;26.740;2023-02-02T03:16:29;99555.66;;;9.94;37.24
60019;BME280;45870;42.528;26.740;2023-02-02T03:18:55;99618.53;;;10.41;38.06
60019;BME280;45870;42.528;26.740;2023-02-02T03:21:22;99613.63;;;10.50;37.48
60019;BME280;45870;42.528;26.740;2023-02-02T03:23:48;99614.19;;;10.52;36.49
60019;BME280;45870;42.528;26.740;2023-02-02T03:26:14;99622.28;;;10.87;36.21
60019;BME280;45870;42.528;26.740;2023-02-02T03:28:41;99625.34;;;10.90;36.72
60019;BME280;45870;42.528;26.740;2023-02-02T03:31:07;99635.03;;;8.05;42.01
60019;BME280;45870;42.528;26.740;2023-02-02T03:33:34;99603.59;;;9.81;38.32
60019;BME280;45870;42.528;26.740;2023-02-02T03:36:02;99634.41;;;10.26;37.98
60019;BME280;45870;42.528;26.740;2023-02-02T03:38:28;99622.28;;;8.86;40.25
60019;BME280;45870;42.528;26.740;2023-02-02T03:40:54;99577.53;;;8.49;40.98
60019;BME280;45870;42.528;26.740;2023-02-02T03:43:21;99618.31;;;9.37;39.11
60019;BME280;45870;42.528;26.740;2023-02-02T03:45:54;99623.91;;;8.87;40.47
60019;BME280;45870;42.528;26.740;2023-02-02T03:48:20;99633.75;;;10.13;37.75
60019;BME280;45870;42.528;26.740;2023-02-02T03:50:46;99627.00;;;10.33;37.04
60019;BME280;45870;42.528;26.740;2023-02-02T03:53:12;99621.09;;;10.13;37.54
60019;BME280;45870;42.528;26.740;2023-02-02T03:55:41;99623.53;;;10.03;37.62
60019;BME280;45870;42.528;26.740;2023-02-02T03:58:09;99577.91;;;9.07;39.11
60019;BME280;45870;42.528;26.740;2023-02-02T04:00:35;99616.56;;;9.72;38.90
60019;BME280;45870;42.528;26.740;2023-02-02T04:03:01;99614.13;;;9.82;38.40
60019;BME280;45870;42.528;26.740;2023-02-02T04:05:27;99612.03;;;9.54;39.20
60019;BME280;45870;42.528;26.740;2023-02-02T04:07:53;99610.84;;;9.50;39.37
60019;BME280;45870;42.528;26.740;2023-02-02T04:10:21;99610.13;;;10.26;37.80
60019;BME280;45870;42.528;26.740;2023-02-02T04:12:47;99618.44;;;10.60;37.24
60019;BME280;45870;42.528;26.740;2023-02-02T04:15:13;99620.06;;;10.14;37.63
60019;BME280;45870;42.528;26.740;2023-02-02T04:17:39;99622.56;;;9.74;38.61
60019;BME280;45870;42.528;26.740;2023-02-02T04:20:05;99611.50;;;10.17;37.53
60019;BME280;45870;42.528;26.740;2023-02-02T04:22:32;99614.75;;;9.54;39.02
60019;BME280;45870;42.528;26.740;2023-02-02T04:24:58;99617.16;;;9.44;39.88
60019;BME280;45870;42.528;26.740;2023-02-02T04:27:27;99614.59;;;8.29;42.12
60019;BME280;45870;42.528;26.740;2023-02-02T04:29:57;99591.66;;;8.99;40.15
60019;BME280;45870;42.528;26.740;2023-02-02T04:32:23;99614.22;;;8.19;42.38
60019;BME280;45870;42.528;26.740;2023-02-02T04:34:48;99549.97;;;8.35;42.02
60019;BME280;45870;42.528;26.740;2023-02-02T04:37:15;99618.25;;;8.34;42.46
60019;BME280;45870;42.528;26.740;2023-02-02T04:39:41;99621.78;;;7.79;44.32
60019;BME280;45870;42.528;26.740;2023-02-02T04:42:07;99621.84;;;7.97;43.85
60019;BME280;45870;42.528;26.740;2023-02-02T04:44:33;99596.91;;;8.39;42.69
60019;BME280;45870;42.528;26.740;2023-02-02T04:46:59;99620.75;;;9.09;41.41
60019;BME280;45870;42.528;26.740;2023-02-02T04:49:25;99625.94;;;7.75;44.45
60019;BME280;45870;42.528;26.740;2023-02-02T04:51:50;99627.78;;;7.81;44.62
60019;BME280;45870;42.528;26.740;2023-02-02T04:54:16;99504.94;;;7.88;42.96
60019;BME280;45870;42.528;26.740;2023-02-02T04:56:42;99555.19;;;8.85;40.58
60019;BME280;45870;42.528;26.740;2023-02-02T04:59:08;99627.72;;;8.62;42.50
60019;BME280;45870;42.528;26.740;2023-02-02T05:01:37;99630.34;;;7.25;45.03
60019;BME280;45870;42.528;26.740;2023-02-02T05:04:24;99624.72;;;8.02;43.52
60019;BME280;45870;42.528;26.740;2023-02-02T05:06:50;99616.81;;;8.93;40.78
60019;BME280;45870;42.528;26.740;2023-02-02T05:09:16;99627.06;;;9.32;40.24
60019;BME280;45870;42.528;26.740;2023-02-02T05:11:42;99644.47;;;8.82;40.84
60019;BME280;45870;42.528;26.740;2023-02-02T05:14:09;99635.59;;;8.38;41.89
60019;BME280;45870;42.528;26.740;2023-02-02T05:16:35;99612.03;;;7.15;44.32
60019;BME280;45870;42.528;26.740;2023-02-02T05:19:01;99635.28;;;7.34;44.04
60019;BME280;45870;42.528;26.740;2023-02-02T05:21:27;99634.47;;;7.96;43.04
60019;BME280;45870;42.528;26.740;2023-02-02T05:23:53;99633.78;;;7.45;44.24
60019;BME280;45870;42.528;26.740;2023-02-02T05:26:25;99636.38;;;8.64;41.61
60019;BME280;45870;42.528;26.740;2023-02-02T05:28:51;99639.00;;;9.54;40.30
60019;BME280;45870;42.528;26.740;2023-02-02T05:31:18;99588.13;;;9.88;38.51
60019;BME280;45870;42.528;26.740;2023-02-02T05:33:44;99636.25;;;10.84;37.55
60019;BME280;45870;42.528;26.740;2023-02-02T05:36:32;99650.53;;;9.73;38.79
60019;BME280;45870;42.528;26.740;2023-02-02T05:38:58;99657.09;;;9.18;40.13
60019;BME280;45870;42.528;26.740;2023-02-02T05:41:27;99654.41;;;11.12;36.53
60019;BME280;45870;42.528;26.740;2023-02-02T05:43:58;99618.75;;;11.26;35.74
60019;BME280;45870;42.528;26.740;2023-02-02T05:46:24;99658.22;;;11.39;35.38
60019;BME280;45870;42.528;26.740;2023-02-02T05:48:50;99666.41;;;11.04;36.24
60019;BME280;45870;42.528;26.740;2023-02-02T05:51:23;99534.75;;;8.47;40.55
60019;BME280;45870;42.528;26.740;2023-02-02T05:53:50;99668.91;;;10.47;38.54
60019;BME280;45870;42.528;26.740;2023-02-02T05:56:16;99666.88;;;11.81;35.67
60019;BME280;45870;42.528;26.740;2023-02-02T05:58:42;99670.94;;;12.28;35.03
60019;BME280;45870;42.528;26.740;2023-02-02T06:01:09;99673.03;;;12.38;34.33
60019;BME280;45870;42.528;26.740;2023-02-02T06:03:35;99675.53;;;11.15;36.43
60019;BME280;45870;42.528;26.740;2023-02-02T06:06:01;99668.34;;;11.60;35.31
60019;BME280;45870;42.528;26.740;2023-02-02T06:08:27;99675.50;;;13.81;32.69
60019;BME280;45870;42.528;26.740;2023-02-02T06:10:53;99668.38;;;12.72;33.70
60019;BME280;45870;42.528;26.740;2023-02-02T06:13:19;99676.59;;;9.49;39.81
60019;BME280;45870;42.528;26.740;2023-02-02T06:15:45;99679.00;;;10.11;39.17
60019;BME280;45870;42.528;26.740;2023-02-02T06:18:11;99683.31;;;10.53;38.90
60019;BME280;45870;42.528;26.740;2023-02-02T06:20:37;99683.28;;;11.91;36.30
60019;BME280;45870;42.528;26.740;2023-02-02T06:23:04;99677.66;;;12.09;35.93
60019;BME280;45870;42.528;26.740;2023-02-02T06:25:30;99686.81;;;10.19;38.10
60019;BME280;45870;42.528;26.740;2023-02-02T06:27:57;99681.66;;;9.87;40.25
60019;BME280;45870;42.528;26.740;2023-02-02T06:30:23;99650.56;;;10.96;37.52
60019;BME280;45870;42.528;26.740;2023-02-02T06:32:50;99694.06;;;11.23;37.07
60019;BME280;45870;42.528;26.740;2023-02-02T06:35:34;99693.97;;;11.06;38.33
60019;BME280;45870;42.528;26.740;2023-02-02T06:38:23;99690.50;;;10.82;38.17
60019;BME280;45870;42.528;26.740;2023-02-02T06:40:49;99695.53;;;10.67;39.15
60019;BME280;45870;42.528;26.740;2023-02-02T06:43:15;99690.94;;;9.43;40.74
60019;BME280;45870;42.528;26.740;2023-02-02T06:45:41;99690.31;;;11.24;37.96
60019;BME280;45870;42.528;26.740;2023-02-02T06:48:07;99684.47;;;12.12;36.39
60019;BME280;45870;42.528;26.740;2023-02-02T06:50:38;99695.03;;;11.17;38.34
60019;BME280;45870;42.528;26.740;2023-02-02T06:53:04;99688.34;;;11.59;37.19
60019;BME280;45870;42.528;26.740;2023-02-02T06:55:30;99694.41;;;11.78;36.68
60019;BME280;45870;42.528;26.740;2023-02-02T06:57:58;99697.63;;;11.12;37.99
60019;BME280;45870;42.528;26.740;2023-02-02T07:00:25;99701.63;;;12.17;36.40
60019;BME280;45870;42.528;26.740;2023-02-02T07:02:51;99697.75;;;11.57;37.57
60019;BME280;45870;42.528;26.740;2023-02-02T07:05:17;99703.06;;;11.40;36.24
60019;BME280;45870;42.528;26.740;2023-02-02T07:07:51;99679.50;;;11.24;38.01
60019;BME280;45870;42.528;26.740;2023-02-02T07:10:17;99708.16;;;12.88;36.25
60019;BME280;45870;42.528;26.740;2023-02-02T07:12:44;99711.03;;;12.98;36.06
60019;BME280;45870;42.528;26.740;2023-02-02T07:15:10;99718.50;;;14.80;33.15
60019;BME280;45870;42.528;26.740;2023-02-02T07:17:36;99723.13;;;13.72;34.27
60019;BME280;45870;42.528;26.740;2023-02-02T07:20:02;99716.16;;;16.18;30.23
60019;BME280;45870;42.528;26.740;2023-02-02T07:22:28;99716.38;;;12.93;35.92
60019;BME280;45870;42.528;26.740;2023-02-02T07:24:54;99717.69;;;12.90;37.48
60019;BME280;45870;42.528;26.740;2023-02-02T07:27:20;99637.00;;;12.37;37.34
60019;BME280;45870;42.528;26.740;2023-02-02T07:29:46;99719.56;;;14.74;33.41
60019;BME280;45870;42.528;26.740;2023-02-02T07:32:11;99722.56;;;12.72;36.06
60019;BME280;45870;42.528;26.740;2023-02-02T07:34:38;99726.56;;;13.63;34.06
60019;BME280;45870;42.528;26.740;2023-02-02T07:37:07;99724.59;;;12.98;35.55
60019;BME280;45870;42.528;26.740;2023-02-02T07:39:33;99740.47;;;12.11;37.55
60019;BME280;45870;42.528;26.740;2023-02-02T07:41:59;99735.69;;;12.01;37.07
60019;BME280;45870;42.528;26.740;2023-02-02T07:44:25;99730.72;;;11.82;37.15
60019;BME280;45870;42.528;26.740;2023-02-02T07:46:51;99726.78;;;12.18;36.31
60019;BME280;45870;42.528;26.740;2023-02-02T07:49:17;99726.06;;;11.94;37.30
60019;BME280;45870;42.528;26.740;2023-02-02T07:51:45;99723.28;;;12.84;35.42
60019;BME280;45870;42.528;26.740;2023-02-02T07:54:14;99714.47;;;13.10;34.30
60019;BME280;45870;42.528;26.740;2023-02-02T07:56:39;99712.97;;;13.02;35.02
60019;BME280;45870;42.528;26.740;2023-02-02T07:59:05;99718.97;;;13.86;33.61
60019;BME280;45870;42.528;26.740;2023-02-02T08:01:31;99706.41;;;13.80;34.08
60019;BME280;45870;42.528;26.740;2023-02-02T08:03:58;99708.75;;;12.90;34.29
60019;BME280;45870;42.528;26.740;2023-02-02T08:06:27;99714.06;;;13.62;33.48
60019;BME280;45870;42.528;26.740;2023-02-02T08:08:55;99707.63;;;14.80;31.99
60019;BME280;45870;42.528;26.740;2023-02-02T08:11:22;99699.13;;;13.37;34.82
60019;BME280;45870;42.528;26.740;2023-02-02T08:13:50;99701.66;;;13.06;34.93
60019;BME280;45870;42.528;26.740;2023-02-02T08:16:17;99664.03;;;13.26;34.13
60019;BME280;45870;42.528;26.740;2023-02-02T08:18:43;99703.00;;;12.03;36.02
60019;BME280;45870;42.528;26.740;2023-02-02T08:21:10;99693.06;;;12.09;37.24
60019;BME280;45870;42.528;26.740;2023-02-02T08:23:37;99688.03;;;13.00;35.28
60019;BME280;45870;42.528;26.740;2023-02-02T08:26:12;99475.50;;;11.54;35.30
60019;BME280;45870;42.528;26.740;2023-02-02T08:28:39;99603.41;;;12.17;34.79
60019;BME280;45870;42.528;26.740;2023-02-02T08:31:08;99701.34;;;15.16;31.47
60019;BME280;45870;42.528;26.740;2023-02-02T08:33:34;99685.84;;;13.84;33.20
60019;BME280;45870;42.528;26.740;2023-02-02T08:36:00;99669.53;;;14.75;31.92
60019;BME280;45870;42.528;26.740;2023-02-02T08:38:26;99694.66;;;14.92;32.47
60019;BME280;45870;42.528;26.740;2023-02-02T08:40:53;99634.53;;;13.56;34.28
60019;BME280;45870;42.528;26.740;2023-02-02T08:43:19;99697.69;;;14.00;33.58
60019;BME280;45870;42.528;26.740;2023-02-02T08:45:45;99702.22;;;13.68;33.34
60019;BME280;45870;42.528;26.740;2023-02-02T08:48:12;99704.66;;;15.85;29.25
60019;BME280;45870;42.528;26.740;2023-02-02T08:50:38;99703.06;;;13.95;31.76
60019;BME280;45870;42.528;26.740;2023-02-02T08:53:04;99705.22;;;15.35;31.06
60019;BME280;45870;42.528;26.740;2023-02-02T08:55:30;99702.53;;;14.52;31.75
60019;BME280;45870;42.528;26.740;2023-02-02T08:57:56;99690.88;;;14.24;30.53
60019;BME280;45870;42.528;26.740;2023-02-02T09:00:21;99704.19;;;13.50;31.87
60019;BME280;45870;42.528;26.740;2023-02-02T09:02:50;99699.59;;;15.00;30.22
60019;BME280;45870;42.528;26.740;2023-02-02T09:05:16;99694.09;;;16.04;29.38
60019;BME280;45870;42.528;26.740;2023-02-02T09:07:42;99695.94;;;13.40;32.02
60019;BME280;45870;42.528;26.740;2023-02-02T09:10:08;99693.69;;;15.13;30.16
60019;BME280;45870;42.528;26.740;2023-02-02T09:12:34;99689.94;;;13.87;31.85
60019;BME280;45870;42.528;26.740;2023-02-02T09:15:00;99701.22;;;14.59;31.99
60019;BME280;45870;42.528;26.740;2023-02-02T09:17:25;99682.66;;;14.83;30.88
60019;BME280;45870;42.528;26.740;2023-02-02T09:19:53;99668.00;;;14.20;32.19
60019;BME280;45870;42.528;26.740;2023-02-02T09:22:19;99686.69;;;15.22;31.91
60019;BME280;45870;42.528;26.740;2023-02-02T09:24:45;99678.78;;;15.88;30.32
60019;BME280;45870;42.528;26.740;2023-02-02T09:27:11;99678.41;;;14.60;30.71
60019;BME280;45870;42.528;26.740;2023-02-02T09:29:37;99685.47;;;14.56;31.31
60019;BME280;45870;42.528;26.740;2023-02-02T09:32:02;99673.78;;;14.61;30.47
60019;BME280;45870;42.528;26.740;2023-02-02T09:34:28;99670.44;;;13.90;31.14
60019;BME280;45870;42.528;26.740;2023-02-02T09:36:54;99656.84;;;13.36;33.38
60019;BME280;45870;42.528;26.740;2023-02-02T09:39:20;99663.59;;;13.12;33.29
60019;BME280;45870;42.528;26.740;2023-02-02T09:44:35;99679.50;;;14.59;33.28
60019;BME280;45870;42.528;26.740;2023-02-02T09:47:16;99664.81;;;14.60;32.56
60019;BME280;45870;42.528;26.740;2023-02-02T09:50:01;99619.66;;;14.91;30.99
60019;BME280;45870;42.528;26.740;2023-02-02T09:52:38;99660.72;;;14.99;32.36
60019;BME280;45870;42.528;26.740;2023-02-02T09:55:38;99638.91;;;14.84;31.19
60019;BME280;45870;42.528;26.740;2023-02-02T09:58:07;99659.47;;;14.70;31.34
60019;BME280;45870;42.528;26.740;2023-02-02T10:00:41;99642.50;;;14.21;30.91
60019;BME280;45870;42.528;26.740;2023-02-02T10:03:16;99644.47;;;15.10;30.61
60019;BME280;45870;42.528;26.740;2023-02-02T10:08:36;99638.38;;;14.14;31.56
60019;BME280;45870;42.528;26.740;2023-02-02T10:11:34;99636.97;;;15.32;29.92
60019;BME280;45870;42.528;26.740;2023-02-02T10:14:07;99613.06;;;14.82;30.07
60019;BME280;45870;42.528;26.740;2023-02-02T10:16:37;99627.59;;;14.56;30.47
60019;BME280;45870;42.528;26.740;2023-02-02T10:19:09;99616.13;;;14.90;30.18
60019;BME280;45870;42.528;26.740;2023-02-02T10:24:46;99624.66;;;15.09;31.30
60019;BME280;45870;42.528;26.740;2023-02-02T10:27:16;99614.84;;;16.31;28.77
60019;BME280;45870;42.528;26.740;2023-02-02T10:30:00;99602.44;;;14.70;29.88
60019;BME280;45870;42.528;26.740;2023-02-02T10:32:34;99414.59;;;14.41;29.83
60019;BME280;45870;42.528;26.740;2023-02-02T10:43:37;99599.53;;;15.59;28.81
60019;BME280;45870;42.528;26.740;2023-02-02T10:46:30;99598.44;;;15.60;28.86
60019;BME280;45870;42.528;26.740;2023-02-02T10:51:40;99601.78;;;16.13;28.83
60019;BME280;45870;42.528;26.740;2023-02-02T10:54:25;99525.84;;;17.06;27.55
60019;BME280;45870;42.528;26.740;2023-02-02T10:56:55;99594.69;;;15.91;29.39
60019;BME280;45870;42.528;26.740;2023-02-02T10:59:30;99588.38;;;16.77;28.14
60019;BME280;45870;42.528;26.740;2023-02-02T11:01:58;99587.06;;;16.34;28.51
60019;BME280;45870;42.528;26.740;2023-02-02T11:04:24;99587.06;;;15.78;29.69
60019;BME280;45870;42.528;26.740;2023-02-02T11:07:09;99592.22;;;16.05;28.92
60019;BME280;45870;42.528;26.740;2023-02-02T11:09:40;99590.53;;;15.59;29.34
60019;BME280;45870;42.528;26.740;2023-02-02T11:12:30;99589.66;;;15.38;29.78
60019;BME280;45870;42.528;26.740;2023-02-02T11:15:02;99584.66;;;14.53;30.31
60019;BME280;45870;42.528;26.740;2023-02-02T11:17:30;99584.03;;;15.55;29.06
60019;BME280;45870;42.528;26.740;2023-02-02T11:19:56;99519.28;;;15.67;27.94
60019;BME280;45870;42.528;26.740;2023-02-02T11:22:36;99572.25;;;15.34;28.82
60019;BME280;45870;42.528;26.740;2023-02-02T11:25:05;99573.41;;;16.64;27.13
60019;BME280;45870;42.528;26.740;2023-02-02T11:27:38;99569.97;;;17.13;26.83
60019;BME280;45870;42.528;26.740;2023-02-02T11:30:20;99569.38;;;14.93;28.93
60019;BME280;45870;42.528;26.740;2023-02-02T11:32:47;99571.16;;;15.35;27.78
60019;BME280;45870;42.528;26.740;2023-02-02T11:35:19;99571.81;;;15.97;27.32
60019;BME280;45870;42.528;26.740;2023-02-02T11:40:27;99569.03;;;16.68;26.19
60019;BME280;45870;42.528;26.740;2023-02-02T11:42:54;99550.56;;;16.30;27.20
60019;BME280;45870;42.528;26.740;2023-02-02T11:45:34;99549.31;;;17.02;25.68
60019;BME280;45870;42.528;26.740;2023-02-02T11:48:09;99549.63;;;17.44;24.33
60019;BME280;45870;42.528;26.740;2023-02-02T11:50:47;99534.34;;;16.89;25.07
60019;BME280;45870;42.528;26.740;2023-02-02T11:53:31;99542.19;;;17.49;23.47
60019;BME280;45870;42.528;26.740;2023-02-02T11:56:10;99486.31;;;16.29;23.92
60019;BME280;45870;42.528;26.740;2023-02-02T11:58:50;99528.59;;;18.93;22.59
60019;BME280;45870;42.528;26.740;2023-02-02T12:01:31;99532.72;;;17.81;23.58
60019;BME280;45870;42.528;26.740;2023-02-02T12:04:24;99525.31;;;17.86;22.68
60019;BME280;45870;42.528;26.740;2023-02-02T12:06:50;99513.38;;;17.77;23.45
60019;BME280;45870;42.528;26.740;2023-02-02T12:09:18;99516.56;;;16.02;27.09
60019;BME280;45870;42.528;26.740;2023-02-02T12:12:16;99501.06;;;16.97;23.78
60019;BME280;45870;42.528;26.740;2023-02-02T12:40:41;99487.66;;;18.65;22.62
60019;BME280;45870;42.528;26.740;2023-02-02T12:46:20;99482.09;;;17.65;23.64
60019;BME280;45870;42.528;26.740;2023-02-02T12:49:22;99486.22;;;18.20;23.09
60019;BME280;45870;42.528;26.740;2023-02-02T12:55:21;99493.88;;;16.37;23.88
60019;BME280;45870;42.528;26.740;2023-02-02T12:57:59;99486.59;;;16.96;23.13
60019;BME280;45870;42.528;26.740;2023-02-02T13:00:43;99484.19;;;18.30;21.31
60019;BME280;45870;42.528;26.740;2023-02-02T13:03:34;99475.97;;;20.09;20.18
60019;BME280;45870;42.528;26.740;2023-02-02T13:09:06;99475.63;;;19.97;19.16
60019;BME280;45870;42.528;26.740;2023-02-02T13:11:41;99466.97;;;19.01;19.81
60019;BME280;45870;42.528;26.740;2023-02-02T13:14:24;99474.63;;;19.41;20.46
60019;BME280;45870;42.528;26.740;2023-02-02T13:16:53;99464.75;;;19.59;20.42
60019;BME280;45870;42.528;26.740;2023-02-02T13:19:41;99470.22;;;17.02;22.76
60019;BME280;45870;42.528;26.740;2023-02-02T13:22:21;99399.75;;;16.75;24.41
60019;BME280;45870;42.528;26.740;2023-02-02T13:24:53;99470.56;;;17.34;23.62
60019;BME280;45870;42.528;26.740;2023-02-02T13:27:20;99438.78;;;15.51;25.23
60019;BME280;45870;42.528;26.740;2023-02-02T13:29:51;99470.56;;;15.95;24.84
60019;BME280;45870;42.528;26.740;2023-02-02T13:32:38;99462.97;;;15.57;24.99
60019;BME280;45870;42.528;26.740;2023-02-02T13:35:17;99465.53;;;16.48;24.73
60019;BME280;45870;42.528;26.740;2023-02-02T13:38:06;99463.63;;;16.59;24.54
60019;BME280;45870;42.528;26.740;2023-02-02T13:40:41;99458.44;;;16.57;24.45
60019;BME280;45870;42.528;26.740;2023-02-02T13:51:50;99420.56;;;17.05;24.21
60019;BME280;45870;42.528;26.740;2023-02-02T13:54:34;99449.41;;;16.67;24.42
60019;BME280;45870;42.528;26.740;2023-02-02T14:00:14;99446.03;;;17.96;23.41
60019;BME280;45870;42.528;26.740;2023-02-02T14:02:51;99447.13;;;17.67;23.39
60019;BME280;45870;42.528;26.740;2023-02-02T14:05:25;99445.00;;;16.76;24.38
60019;BME280;45870;42.528;26.740;2023-02-02T14:08:19;99449.16;;;17.12;23.86
60019;BME280;45870;42.528;26.740;2023-02-02T14:13:28;99444.47;;;17.23;24.16
60019;BME280;45870;42.528;26.740;2023-02-02T14:19:00;99444.03;;;16.46;25.69
60019;BME280;45870;42.528;26.740;2023-02-02T14:24:03;99432.25;;;16.66;25.23
60019;BME280;45870;42.528;26.740;2023-02-02T14:26:42;99442.66;;;17.03;25.46
60019;BME280;45870;42.528;26.740;2023-02-02T14:32:03;99392.69;;;16.74;26.14
60019;BME280;45870;42.528;26.740;2023-02-02T14:34:49;99195.25;;;15.63;26.19
60019;BME280;45870;42.528;26.740;2023-02-02T14:47:49;99468.22;;;14.66;27.19
60019;BME280;45870;42.528;26.740;2023-02-02T14:53:31;99504.66;;;12.58;36.88
60019;BME280;45870;42.528;26.740;2023-02-02T14:56:00;99527.75;;;11.43;41.50
60019;BME280;45870;42.528;26.740;2023-02-02T14:58:36;99512.50;;;11.99;40.26
60019;BME280;45870;42.528;26.740;2023-02-02T15:06:25;99503.56;;;11.82;41.69
60019;BME280;45870;42.528;26.740;2023-02-02T15:14:48;99514.28;;;11.93;41.56
60019;BME280;45870;42.528;26.740;2023-02-02T15:20:35;99521.88;;;12.95;39.13